Time;durP1;ratioP1;P1;durP2;ratioP2;P2;SDS_P1;SDS_P2;PMS_P1;PMS_P2;Temp;Humidity;BMP_temperature;BMP_pressure;BME280_temperature;BME280_humidity;BME280_pressure;Samples;Min_cycle;Max_cycle;Signal;HPM_P1;HPM_P2
2023/03/11 00:11:09;;;;;;;;;;;1.40;99.90;;;;;;8382293;28;20030;-70
2023/03/11 00:15:11;;;;;;;;;;;1.30;99.90;;;;;;8383366;28;20299;-70
2023/03/11 00:19:13;;;;;;;;;;;1.20;99.90;;;;;;8371726;28;19970;-70
2023/03/11 00:23:15;;;;;;;;;;;1.20;99.90;;;;;;8384581;28;19971;-70
2023/03/11 00:27:16;;;;;;;;;;;1.10;99.90;;;;;;8380002;28;20322;-70
2023/03/11 00:31:18;;;;;;;;;;;1.10;99.90;;;;;;8385806;28;19924;-70
2023/03/11 00:35:21;;;;;;;;;;;1.10;99.90;;;;;;8390082;28;20426;-70
2023/03/11 00:39:23;;;;;;;;;;;1.00;99.90;;;;;;8382580;28;20088;-70
2023/03/11 00:43:25;;;;;;;;;;;1.00;99.90;;;;;;8387111;28;20019;-70
2023/03/11 00:47:26;;;;;;;;;;;1.00;99.90;;;;;;8393020;28;19949;-70
2023/03/11 00:51:28;;;;;;;;;;;1.00;99.90;;;;;;8397849;28;19924;-70
2023/03/11 00:55:31;;;;;;;;;;;1.00;99.90;;;;;;8403163;28;19936;-70
2023/03/11 00:59:33;;;;;;;;;;;1.00;99.90;;;;;;8399949;28;19928;-70
2023/03/11 01:03:35;;;;;;;;;;;1.00;99.90;;;;;;8371141;28;19925;-70
2023/03/11 01:07:36;;;;;;;;;;;1.00;99.90;;;;;;8388691;28;19979;-70
2023/03/11 01:11:38;;;;;;;;;;;1.00;99.90;;;;;;8379679;28;19928;-70
2023/03/11 01:15:40;;;;;;;;;;;0.90;99.90;;;;;;8399767;28;19936;-70
2023/03/11 01:19:43;;;;;;;;;;;0.90;99.90;;;;;;8393038;28;19928;-69
2023/03/11 01:23:45;;;;;;;;;;;0.80;99.90;;;;;;8372364;28;19928;-69
2023/03/11 01:27:46;;;;;;;;;;;0.80;99.90;;;;;;8387215;28;19948;-69
2023/03/11 01:31:48;;;;;;;;;;;0.70;99.90;;;;;;8389844;28;19934;-70
2023/03/11 01:51:00;;;;;;;;;;;0.60;99.90;;;;;;8387889;28;19923;-70
2023/03/11 01:55:06;;;;;;;;;;;0.60;99.90;;;;;;8375826;28;20008;-70
2023/03/11 01:59:08;;;;;;;;;;;0.60;99.90;;;;;;8384961;28;19939;-70
2023/03/11 02:03:16;;;;;;;;;;;0.50;99.90;;;;;;8383058;28;20475;-70
2023/03/11 02:07:18;;;;;;;;;;;0.50;99.90;;;;;;8378303;28;19943;-70
2023/03/11 02:11:23;;;;;;;;;;;0.50;99.90;;;;;;8395810;28;20423;-70
2023/03/11 02:15:25;;;;;;;;;;;0.40;99.90;;;;;;8387125;28;19933;-70
2023/03/11 02:19:33;;;;;;;;;;;0.40;99.90;;;;;;8391577;28;19924;-70
2023/03/11 02:23:58;;;;;;;;;;;0.30;99.90;;;;;;8370126;28;19932;-70
2023/03/11 02:28:01;;;;;;;;;;;0.30;99.90;;;;;;8369745;28;19978;-70
2023/03/11 02:32:05;;;;;;;;;;;0.30;99.90;;;;;;8387044;28;19935;-70
2023/03/11 02:36:07;;;;;;;;;;;0.20;99.90;;;;;;8368691;28;19925;-70
2023/03/11 02:40:21;;;;;;;;;;;0.10;99.90;;;;;;8384592;28;20007;-70
2023/03/11 02:44:22;;;;;;;;;;;0.10;99.90;;;;;;8386870;28;19972;-70
2023/03/11 02:48:24;;;;;;;;;;;0.00;99.90;;;;;;8379579;28;20293;-70
2023/03/11 02:52:31;;;;;;;;;;;0.00;99.90;;;;;;8367973;28;19932;-70
2023/03/11 02:56:33;;;;;;;;;;;-0.10;99.90;;;;;;8373726;28;20023;-69
2023/03/11 03:00:34;;;;;;;;;;;-0.10;99.90;;;;;;8371051;28;19944;-70
2023/03/11 03:04:36;;;;;;;;;;;-0.20;99.90;;;;;;8367139;28;19931;-70
2023/03/11 03:08:38;;;;;;;;;;;-0.20;99.90;;;;;;8382183;28;19931;-70
2023/03/11 03:12:39;;;;;;;;;;;-0.20;99.90;;;;;;8388212;28;19935;-70
2023/03/11 03:16:41;;;;;;;;;;;-0.20;99.90;;;;;;8368489;28;19939;-70
2023/03/11 03:20:43;;;;;;;;;;;-0.30;99.90;;;;;;8395117;28;19994;-70
2023/03/11 03:24:45;;;;;;;;;;;-0.30;99.90;;;;;;8380823;28;20407;-70
2023/03/11 03:28:46;;;;;;;;;;;-0.30;99.90;;;;;;8383888;28;19951;-70
2023/03/11 03:32:48;;;;;;;;;;;-0.40;99.90;;;;;;8386118;28;19925;-70
2023/03/11 03:36:50;;;;;;;;;;;-0.40;99.90;;;;;;8389266;28;19931;-70
2023/03/11 03:40:51;;;;;;;;;;;-0.40;99.90;;;;;;8365829;28;19956;-70
2023/03/11 03:44:53;;;;;;;;;;;-0.50;99.90;;;;;;8377489;28;20548;-70
2023/03/11 03:59:01;;;;;;;;;;;-0.70;99.90;;;;;;8379704;28;20013;-72
2023/03/11 04:03:03;;;;;;;;;;;-0.70;99.90;;;;;;8385624;28;19978;-72
2023/03/11 04:07:05;;;;;;;;;;;-0.70;99.90;;;;;;8360911;28;19948;-71
2023/03/11 04:11:06;;;;;;;;;;;-0.70;99.90;;;;;;8376626;28;19924;-70
2023/03/11 04:20:12;;;;;;;;;;;-0.80;99.90;;;;;;8368736;28;19974;-69
2023/03/11 04:34:36;;;;;;;;;;;-0.90;99.90;;;;;;8390096;28;20033;-72
2023/03/11 04:38:38;;;;;;;;;;;-0.90;99.90;;;;;;8384666;28;19960;-72
2023/03/11 04:42:40;;;;;;;;;;;-0.90;99.90;;;;;;8387852;28;20363;-71
2023/03/11 04:46:42;;;;;;;;;;;-1.00;99.90;;;;;;8396327;28;20029;-71
2023/03/11 04:50:43;;;;;;;;;;;-1.00;99.90;;;;;;8373497;28;19967;-71
2023/03/11 04:54:45;;;;;;;;;;;-1.00;99.90;;;;;;8394713;28;20388;-72
2023/03/11 04:58:46;;;;;;;;;;;-1.00;99.90;;;;;;8396448;28;19928;-72
2023/03/11 05:02:48;;;;;;;;;;;-1.00;99.90;;;;;;8378649;28;20381;-72
2023/03/11 05:06:50;;;;;;;;;;;-1.10;99.90;;;;;;8388341;28;19925;-72
2023/03/11 05:10:52;;;;;;;;;;;-1.10;99.90;;;;;;8385722;28;19946;-71
2023/03/11 05:14:53;;;;;;;;;;;-1.10;99.90;;;;;;8386503;28;19928;-72
2023/03/11 05:18:55;;;;;;;;;;;-1.20;99.90;;;;;;8362878;28;19968;-71
2023/03/11 05:22:57;;;;;;;;;;;-1.20;99.90;;;;;;8391222;28;19940;-71
2023/03/11 05:26:58;;;;;;;;;;;-1.20;99.90;;;;;;8400367;28;19963;-71
2023/03/11 05:31:00;;;;;;;;;;;-1.20;99.90;;;;;;8390602;28;19932;-71
2023/03/11 05:35:02;;;;;;;;;;;-1.30;99.90;;;;;;8384334;28;19932;-71
2023/03/11 05:39:03;;;;;;;;;;;-1.30;99.90;;;;;;8370533;28;19967;-71
2023/03/11 05:43:05;;;;;;;;;;;-1.30;99.90;;;;;;8384163;28;19936;-72
2023/03/11 05:57:21;;;;;;;;;;;-1.40;99.90;;;;;;8386448;28;20025;-72
2023/03/11 06:01:23;;;;;;;;;;;-1.40;99.90;;;;;;8401382;28;19956;-71
2023/03/11 06:05:24;;;;;;;;;;;-1.50;99.90;;;;;;8387524;28;19928;-71
2023/03/11 06:09:26;;;;;;;;;;;-1.40;99.90;;;;;;8398862;28;19933;-71
2023/03/11 06:13:28;;;;;;;;;;;-1.40;99.90;;;;;;8389612;28;19939;-71
2023/03/11 06:17:30;;;;;;;;;;;-1.50;99.90;;;;;;8374488;28;20007;-71
2023/03/11 06:21:31;;;;;;;;;;;-1.50;99.90;;;;;;8388803;28;19924;-71
2023/03/11 06:25:33;;;;;;;;;;;-1.50;99.90;;;;;;8372842;28;20028;-71
2023/03/11 06:34:32;;;;;;;;;;;-1.50;99.90;;;;;;8384724;28;19965;-71
2023/03/11 06:38:33;;;;;;;;;;;-1.40;99.90;;;;;;8383464;28;19951;-71
2023/03/11 06:42:37;;;;;;;;;;;-1.40;99.90;;;;;;8384194;28;19931;-71
2023/03/11 06:46:39;;;;;;;;;;;-1.30;99.90;;;;;;8391437;28;19928;-71
2023/03/11 06:50:41;;;;;;;;;;;-1.20;99.90;;;;;;8363006;28;20383;-71
2023/03/11 06:54:42;;;;;;;;;;;-1.10;99.90;;;;;;8403034;28;19930;-71
2023/03/11 06:58:44;;;;;;;;;;;-1.00;99.90;;;;;;8392141;28;19930;-71
2023/03/11 07:02:46;;;;;;;;;;;-1.00;99.90;;;;;;8391550;28;19936;-71
2023/03/11 07:06:47;;;;;;;;;;;-0.90;99.90;;;;;;8376902;28;19936;-71
2023/03/11 07:10:59;;;;;;;;;;;-0.80;99.90;;;;;;8389167;28;19975;-71
2023/03/11 07:15:01;;;;;;;;;;;-0.70;99.90;;;;;;8371049;28;20006;-71
2023/03/11 07:19:03;;;;;;;;;;;-0.60;99.90;;;;;;8387191;28;19932;-71
2023/03/11 07:23:04;;;;;;;;;;;-0.50;99.90;;;;;;8377050;28;20013;-71
2023/03/11 07:32:12;;;;;;;;;;;-0.20;99.90;;;;;;8382575;28;20312;-72
2023/03/11 07:36:16;;;;;;;;;;;0.00;99.90;;;;;;8398735;28;19924;-72
2023/03/11 07:40:18;;;;;;;;;;;0.10;99.90;;;;;;8380014;28;19959;-72
2023/03/11 07:44:20;;;;;;;;;;;0.20;99.90;;;;;;8388852;28;19929;-71
2023/03/11 07:48:21;;;;;;;;;;;0.30;99.90;;;;;;8383961;28;19974;-69
2023/03/11 07:52:23;;;;;;;;;;;0.50;99.90;;;;;;8384498;28;19983;-69
2023/03/11 07:56:26;;;;;;;;;;;0.60;99.90;;;;;;8364886;28;20263;-70
2023/03/11 08:00:27;;;;;;;;;;;0.80;99.90;;;;;;8385972;28;20023;-70
2023/03/11 08:04:29;;;;;;;;;;;0.90;99.90;;;;;;8385484;28;20432;-70
2023/03/11 08:08:31;;;;;;;;;;;1.10;99.90;;;;;;8383725;28;19924;-70
2023/03/11 08:12:32;;;;;;;;;;;1.20;99.90;;;;;;8393737;28;20052;-71
2023/03/11 08:16:34;;;;;;;;;;;1.50;99.90;;;;;;8373287;28;20019;-70
2023/03/11 08:31:13;;;;;;;;;;;2.00;99.90;;;;;;8367066;28;19923;-70
2023/03/11 08:35:15;;;;;;;;;;;2.20;99.90;;;;;;8370078;28;19924;-70
2023/03/11 08:39:17;;;;;;;;;;;2.30;99.90;;;;;;8382102;28;19975;-70
2023/03/11 08:43:18;;;;;;;;;;;2.50;99.90;;;;;;8390291;28;20410;-70
2023/03/11 08:47:20;;;;;;;;;;;2.70;99.90;;;;;;8396096;28;19931;-70
2023/03/11 08:51:23;;;;;;;;;;;2.90;99.90;;;;;;8399415;28;19924;-70
2023/03/11 09:05:35;;;;;;;;;;;3.30;99.90;;;;;;8383585;28;19975;-70
2023/03/11 09:09:36;;;;;;;;;;;3.50;99.90;;;;;;8369491;28;19932;-70
2023/03/11 09:13:41;;;;;;;;;;;3.60;99.90;;;;;;8397627;28;19928;-70
2023/03/11 09:17:42;;;;;;;;;;;3.70;99.90;;;;;;8390396;28;19967;-70
2023/03/11 09:21:44;;;;;;;;;;;3.90;99.90;;;;;;8384952;28;19924;-70
2023/03/11 09:25:46;;;;;;;;;;;4.00;99.90;;;;;;8400067;28;19928;-70
2023/03/11 09:29:47;;;;;;;;;;;4.20;99.90;;;;;;8401544;28;19995;-70
2023/03/11 09:33:51;;;;;;;;;;;4.30;99.90;;;;;;8387019;28;19931;-69
2023/03/11 09:37:52;;;;;;;;;;;4.50;99.90;;;;;;8401962;28;19923;-69
2023/03/11 09:41:55;;;;;;;;;;;4.60;99.90;;;;;;8384956;28;19924;-69
2023/03/11 09:46:18;;;;;;;;;;;4.80;99.90;;;;;;8361733;28;19946;-69
2023/03/11 09:50:23;;;;;;;;;;;5.00;99.90;;;;;;8399499;28;20430;-70
2023/03/11 09:54:27;;;;;;;;;;;5.20;99.90;;;;;;8404483;28;20299;-70
2023/03/11 09:58:29;;;;;;;;;;;5.40;99.90;;;;;;8392354;28;20015;-70
2023/03/11 10:02:31;;;;;;;;;;;5.70;99.90;;;;;;8383062;28;20376;-70
2023/03/11 10:06:33;;;;;;;;;;;6.00;99.90;;;;;;8365839;28;19932;-70
2023/03/11 10:10:38;;;;;;;;;;;6.30;99.90;;;;;;8381216;28;19982;-70
2023/03/11 10:14:49;;;;;;;;;;;6.70;99.90;;;;;;8381079;28;19928;-70
2023/03/11 10:18:56;;;;;;;;;;;6.80;99.90;;;;;;8389066;28;19924;-70
2023/03/11 10:23:00;;;;;;;;;;;6.80;99.90;;;;;;8379323;28;19931;-70
2023/03/11 10:27:08;;;;;;;;;;;6.90;99.90;;;;;;8397984;28;20006;-69
2023/03/11 10:31:28;;;;;;;;;;;7.20;99.90;;;;;;8395347;28;20303;-70
2023/03/11 10:35:38;;;;;;;;;;;7.50;99.90;;;;;;8385378;28;19932;-70
2023/03/11 10:39:40;;;;;;;;;;;7.20;99.90;;;;;;8382753;28;19929;-69
2023/03/11 10:43:48;;;;;;;;;;;6.90;99.90;;;;;;8377591;28;20023;-69
2023/03/11 10:47:51;;;;;;;;;;;6.80;99.90;;;;;;8376587;28;19933;-69
2023/03/11 10:51:53;;;;;;;;;;;6.60;99.90;;;;;;8382313;28;19932;-69
2023/03/11 10:55:56;;;;;;;;;;;6.60;99.90;;;;;;8378154;28;19932;-69
2023/03/11 10:59:59;;;;;;;;;;;6.70;99.90;;;;;;8378194;28;19924;-70
2023/03/11 11:04:01;;;;;;;;;;;7.00;99.90;;;;;;8369423;28;19990;-70
2023/03/11 11:08:02;;;;;;;;;;;7.80;99.90;;;;;;8369531;28;19924;-69
2023/03/11 11:12:05;;;;;;;;;;;8.80;99.90;;;;;;8392917;28;19925;-69
2023/03/11 11:16:19;;;;;;;;;;;9.50;99.90;;;;;;8381608;28;19935;-69
2023/03/11 11:20:21;;;;;;;;;;;9.90;99.90;;;;;;8373570;28;19936;-70
2023/03/11 11:24:25;;;;;;;;;;;10.20;99.90;;;;;;8393828;28;19924;-70
2023/03/11 11:28:27;;;;;;;;;;;10.60;99.90;;;;;;8365573;28;20376;-70
2023/03/11 11:32:28;;;;;;;;;;;10.80;99.90;;;;;;8389652;28;20019;-70
2023/03/11 11:36:33;;;;;;;;;;;11.20;99.90;;;;;;8377734;28;19928;-69
2023/03/11 11:40:35;;;;;;;;;;;11.60;99.90;;;;;;8361857;28;19939;-70
2023/03/11 11:44:36;;;;;;;;;;;11.90;99.90;;;;;;8351568;28;19929;-69
2023/03/11 11:48:38;;;;;;;;;;;11.90;99.90;;;;;;8355652;28;19991;-70
2023/03/11 11:52:43;;;;;;;;;;;12.00;99.90;;;;;;8374954;28;20315;-70
2023/03/11 11:56:45;;;;;;;;;;;12.00;99.90;;;;;;8356623;28;19964;-69
2023/03/11 12:01:06;;;;;;;;;;;12.20;99.90;;;;;;8361319;28;19980;-70
2023/03/11 12:05:10;;;;;;;;;;;12.50;99.90;;;;;;8357100;28;20031;-70
2023/03/11 12:09:23;;;;;;;;;;;12.70;99.90;;;;;;8354294;28;20011;-69
2023/03/11 12:13:46;;;;;;;;;;;12.90;99.90;;;;;;8356085;28;20347;-69
2023/03/11 12:17:49;;;;;;;;;;;12.90;99.90;;;;;;8335591;28;20316;-70
2023/03/11 12:22:03;;;;;;;;;;;12.90;99.90;;;;;;8368361;28;19932;-69
2023/03/11 12:26:10;;;;;;;;;;;12.50;99.90;;;;;;8356168;28;20337;-70
2023/03/11 12:30:17;;;;;;;;;;;12.40;99.90;;;;;;8364014;28;19931;-69
2023/03/11 12:34:19;;;;;;;;;;;12.40;99.90;;;;;;8352539;28;19971;-69
2023/03/11 12:38:27;;;;;;;;;;;12.50;99.90;;;;;;8341468;28;19935;-70
2023/03/11 12:42:39;;;;;;;;;;;12.60;99.90;;;;;;8360116;28;19924;-70
2023/03/11 12:46:52;;;;;;;;;;;12.70;99.90;;;;;;8368874;28;19929;-70
2023/03/11 12:50:55;;;;;;;;;;;12.80;99.90;;;;;;8370701;28;19989;-70
2023/03/11 12:54:56;;;;;;;;;;;12.90;99.90;;;;;;8368361;28;19925;-70
2023/03/11 12:59:01;;;;;;;;;;;12.90;99.90;;;;;;8366984;28;19987;-70
2023/03/11 13:03:06;;;;;;;;;;;12.50;99.90;;;;;;8369411;28;19924;-69
2023/03/11 13:07:11;;;;;;;;;;;11.90;99.90;;;;;;8363769;28;19937;-69
2023/03/11 13:11:25;;;;;;;;;;;11.30;99.90;;;;;;8359869;28;19925;-69
2023/03/11 13:15:34;;;;;;;;;;;11.00;99.90;;;;;;8361724;28;19925;-70
2023/03/11 13:19:45;;;;;;;;;;;10.70;99.90;;;;;;8357523;28;19960;-70
2023/03/11 13:23:46;;;;;;;;;;;10.30;99.90;;;;;;8358949;28;19940;-69
2023/03/11 13:27:50;;;;;;;;;;;10.00;99.90;;;;;;8358181;28;19959;-69
2023/03/11 13:32:01;;;;;;;;;;;9.90;99.90;;;;;;8359167;28;19928;-69
2023/03/11 13:36:12;;;;;;;;;;;9.90;99.90;;;;;;8360121;28;19979;-69
2023/03/11 13:40:35;;;;;;;;;;;10.00;99.90;;;;;;8363661;28;19935;-70
2023/03/11 13:44:38;;;;;;;;;;;10.10;99.90;;;;;;8368435;28;19964;-70
2023/03/11 13:48:43;;;;;;;;;;;10.00;99.90;;;;;;8370623;28;19972;-69
2023/03/11 13:52:47;;;;;;;;;;;10.00;99.90;;;;;;8365534;28;19932;-70
2023/03/11 13:56:54;;;;;;;;;;;9.90;99.90;;;;;;8366079;28;19933;-70
2023/03/11 14:00:59;;;;;;;;;;;10.00;99.90;;;;;;8375041;28;19929;-70
2023/03/11 14:05:08;;;;;;;;;;;9.90;99.20;;;;;;8371501;28;20327;-69
2023/03/11 14:09:17;;;;;;;;;;;9.90;99.90;;;;;;8365927;28;19924;-69
2023/03/11 14:13:18;;;;;;;;;;;10.00;99.90;;;;;;8364930;28;19977;-70
2023/03/11 14:17:20;;;;;;;;;;;10.30;99.90;;;;;;8355884;28;19936;-70
2023/03/11 14:21:22;;;;;;;;;;;10.40;96.50;;;;;;8358429;28;20353;-70
2023/03/11 14:25:25;;;;;;;;;;;10.60;97.50;;;;;;8360807;28;19929;-70
2023/03/11 14:29:31;;;;;;;;;;;10.60;97.60;;;;;;8356388;28;19971;-70
2023/03/11 14:33:33;;;;;;;;;;;10.50;96.70;;;;;;8371225;28;20011;-70
2023/03/11 14:37:36;;;;;;;;;;;11.00;99.90;;;;;;8363428;28;20019;-70
2023/03/11 14:41:38;;;;;;;;;;;11.60;99.90;;;;;;8352401;28;19933;-70
2023/03/11 14:45:41;;;;;;;;;;;12.10;86.20;;;;;;8363636;28;19925;-71
2023/03/11 14:49:43;;;;;;;;;;;12.30;91.20;;;;;;8357880;28;20265;-70
2023/03/11 14:53:47;;;;;;;;;;;12.50;92.00;;;;;;8358322;28;20963;-70
2023/03/11 14:58:15;;;;;;;;;;;13.00;99.90;;;;;;8367399;28;20395;-70
2023/03/11 15:02:16;;;;;;;;;;;13.60;99.90;;;;;;8359778;28;19940;-70
2023/03/11 15:06:19;;;;;;;;;;;14.20;94.00;;;;;;8354494;28;19936;-70
2023/03/11 15:10:21;;;;;;;;;;;14.20;99.90;;;;;;8359270;28;20360;-70
2023/03/11 15:14:27;;;;;;;;;;;14.10;98.00;;;;;;8353963;28;20325;-70
2023/03/11 15:18:36;;;;;;;;;;;13.90;92.30;;;;;;8342092;28;19935;-70
2023/03/11 15:22:38;;;;;;;;;;;13.40;98.20;;;;;;8347589;28;19966;-70
2023/03/11 15:26:40;;;;;;;;;;;12.90;95.80;;;;;;8355855;28;19925;-70
2023/03/11 15:30:42;;;;;;;;;;;12.30;97.60;;;;;;8354196;28;19989;-70
2023/03/11 15:34:43;;;;;;;;;;;12.20;99.90;;;;;;8354503;28;19982;-70
2023/03/11 15:38:45;;;;;;;;;;;12.50;99.90;;;;;;8356964;28;19928;-70
2023/03/11 15:42:47;;;;;;;;;;;12.90;99.90;;;;;;8359473;28;20033;-70
2023/03/11 15:46:49;;;;;;;;;;;13.20;99.90;;;;;;8352205;28;19933;-70
2023/03/11 15:50:52;;;;;;;;;;;13.30;99.90;;;;;;8349104;28;20019;-70
2023/03/11 15:54:55;;;;;;;;;;;13.40;98.80;;;;;;8358441;28;20326;-70
2023/03/11 15:58:56;;;;;;;;;;;13.20;99.10;;;;;;8354781;28;20031;-70
2023/03/11 16:02:58;;;;;;;;;;;12.90;99.90;;;;;;8355905;28;19939;-70
2023/03/11 16:07:00;;;;;;;;;;;12.70;95.60;;;;;;8336238;28;19929;-70
2023/03/11 16:11:11;;;;;;;;;;;12.30;90.40;;;;;;8359255;28;19972;-70
2023/03/11 16:15:15;;;;;;;;;;;12.10;96.40;;;;;;8352142;28;19938;-70
2023/03/11 16:19:17;;;;;;;;;;;12.20;99.90;;;;;;8354762;28;19939;-70
2023/03/11 16:23:23;;;;;;;;;;;12.30;99.50;;;;;;8356213;28;20002;-69
2023/03/11 16:27:25;;;;;;;;;;;12.70;99.90;;;;;;8361697;28;19964;-70
2023/03/11 16:31:27;;;;;;;;;;;13.10;94.70;;;;;;8347076;28;20329;-70
2023/03/11 16:35:28;;;;;;;;;;;13.20;99.40;;;;;;8352727;28;19928;-70
2023/03/11 16:39:30;;;;;;;;;;;13.30;99.90;;;;;;8339557;28;19977;-69
2023/03/11 16:43:32;;;;;;;;;;;13.30;95.80;;;;;;8371998;28;19936;-69
2023/03/11 16:47:33;;;;;;;;;;;13.50;98.60;;;;;;8353966;28;19929;-70
2023/03/11 16:51:35;;;;;;;;;;;12.90;99.90;;;;;;8375619;28;19925;-70
2023/03/11 16:55:37;;;;;;;;;;;12.40;98.30;;;;;;8355549;28;19932;-70
2023/03/11 16:59:38;;;;;;;;;;;12.00;99.90;;;;;;8354025;28;20015;-69
2023/03/11 17:03:42;;;;;;;;;;;11.60;99.90;;;;;;8350269;28;19983;-70
2023/03/11 17:07:43;;;;;;;;;;;11.20;99.90;;;;;;8366603;28;19932;-70
2023/03/11 17:11:45;;;;;;;;;;;10.90;99.90;;;;;;8346875;28;20024;-69
2023/03/11 17:16:00;;;;;;;;;;;10.70;99.90;;;;;;8363836;28;19925;-69
2023/03/11 17:20:01;;;;;;;;;;;10.40;99.90;;;;;;8343639;28;19947;-70
2023/03/11 17:24:03;;;;;;;;;;;9.90;99.90;;;;;;8339132;28;19936;-69
2023/03/11 17:28:05;;;;;;;;;;;9.40;99.90;;;;;;8352175;28;19967;-69
2023/03/11 17:32:07;;;;;;;;;;;9.00;99.90;;;;;;8358205;28;19924;-69
2023/03/11 17:36:10;;;;;;;;;;;8.60;99.90;;;;;;8353706;28;19948;-70
2023/03/11 17:40:12;;;;;;;;;;;8.20;99.90;;;;;;8353733;28;20471;-70
2023/03/11 17:44:13;;;;;;;;;;;7.80;99.90;;;;;;8368129;28;19933;-69
2023/03/11 17:48:15;;;;;;;;;;;7.50;99.90;;;;;;8358926;28;20372;-70
2023/03/11 17:52:17;;;;;;;;;;;7.30;99.90;;;;;;8360550;28;19928;-70
2023/03/11 17:56:19;;;;;;;;;;;7.00;99.90;;;;;;8344071;28;19948;-69
2023/03/11 18:00:21;;;;;;;;;;;6.80;99.90;;;;;;8362084;28;20031;-70
2023/03/11 18:04:22;;;;;;;;;;;6.60;99.90;;;;;;8367000;28;19929;-69
2023/03/11 18:08:24;;;;;;;;;;;6.40;99.90;;;;;;8342552;28;20038;-70
2023/03/11 18:12:26;;;;;;;;;;;6.20;99.90;;;;;;8372052;28;19933;-70
2023/03/11 18:16:28;;;;;;;;;;;6.10;99.90;;;;;;8363143;28;19929;-69
2023/03/11 18:20:31;;;;;;;;;;;5.90;99.90;;;;;;8348454;28;19925;-70
2023/03/11 18:24:33;;;;;;;;;;;5.80;99.90;;;;;;8333361;28;20386;-70
2023/03/11 18:28:35;;;;;;;;;;;5.70;99.90;;;;;;8363634;28;19955;-70
2023/03/11 18:32:37;;;;;;;;;;;5.60;99.90;;;;;;8354607;28;19950;-69
2023/03/11 18:36:39;;;;;;;;;;;5.50;99.90;;;;;;8356668;28;20433;-69
2023/03/11 18:40:41;;;;;;;;;;;5.30;99.90;;;;;;8344298;28;19948;-69
2023/03/11 18:44:43;;;;;;;;;;;5.30;99.90;;;;;;8361494;28;19932;-69
2023/03/11 18:48:45;;;;;;;;;;;5.30;99.90;;;;;;8363628;28;20339;-69
2023/03/11 18:52:50;;;;;;;;;;;5.20;99.90;;;;;;8358639;28;19950;-70
2023/03/11 18:56:52;;;;;;;;;;;5.20;99.90;;;;;;8382331;28;19929;-69
2023/03/11 19:00:54;;;;;;;;;;;5.20;99.90;;;;;;8363089;28;20332;-69
2023/03/11 19:04:55;;;;;;;;;;;5.10;99.90;;;;;;8358197;28;19929;-69
2023/03/11 19:08:57;;;;;;;;;;;5.10;99.90;;;;;;8357443;28;19935;-69
2023/03/11 19:12:59;;;;;;;;;;;5.00;99.90;;;;;;8363477;28;20137;-69
2023/03/11 19:17:00;;;;;;;;;;;5.00;99.90;;;;;;8359585;28;20281;-70
2023/03/11 19:26:17;;;;;;;;;;;4.80;99.90;;;;;;8361649;28;19986;-70
2023/03/11 19:30:19;;;;;;;;;;;4.70;99.90;;;;;;8377045;28;19964;-70
2023/03/11 19:34:21;;;;;;;;;;;4.60;99.90;;;;;;8360207;28;19925;-70
2023/03/11 19:38:23;;;;;;;;;;;4.60;99.90;;;;;;8344007;28;19924;-69
2023/03/11 19:42:25;;;;;;;;;;;4.50;99.90;;;;;;8359812;28;19925;-69
2023/03/11 19:46:28;;;;;;;;;;;4.50;99.90;;;;;;8360957;28;19956;-69
2023/03/11 19:50:29;;;;;;;;;;;4.40;99.90;;;;;;8364069;28;20003;-69
2023/03/11 19:54:31;;;;;;;;;;;4.40;99.90;;;;;;8352212;28;19925;-70
2023/03/11 19:58:33;;;;;;;;;;;4.30;99.90;;;;;;8353483;28;19932;-70
2023/03/11 20:02:35;;;;;;;;;;;4.20;99.90;;;;;;8360833;28;19956;-70
2023/03/11 20:06:36;;;;;;;;;;;4.10;99.90;;;;;;8356470;28;20306;-70
2023/03/11 20:10:42;;;;;;;;;;;4.00;99.90;;;;;;8366177;28;20292;-70
2023/03/11 20:14:45;;;;;;;;;;;3.90;99.90;;;;;;8359977;28;19975;-70
2023/03/11 20:18:47;;;;;;;;;;;3.90;99.90;;;;;;8353662;28;19961;-70
2023/03/11 20:22:49;;;;;;;;;;;3.80;99.90;;;;;;8366648;28;19944;-70
2023/03/11 20:26:50;;;;;;;;;;;3.70;99.90;;;;;;8356825;28;19929;-70
2023/03/11 20:30:53;;;;;;;;;;;3.60;99.90;;;;;;8359737;28;19924;-69
2023/03/11 20:34:54;;;;;;;;;;;3.60;99.90;;;;;;8351974;28;20386;-70
2023/03/11 20:44:06;;;;;;;;;;;3.40;99.90;;;;;;8358032;28;19923;-69
2023/03/11 20:48:08;;;;;;;;;;;3.40;99.90;;;;;;8358549;28;19925;-71
2023/03/11 20:52:10;;;;;;;;;;;3.30;99.90;;;;;;8354671;28;20047;-70
2023/03/11 21:15:56;;;;;;;;;;;3.20;99.90;;;;;;8363825;28;19946;-70
2023/03/11 21:19:58;;;;;;;;;;;3.20;99.90;;;;;;8363246;28;19992;-70
2023/03/11 21:23:59;;;;;;;;;;;3.20;99.90;;;;;;8367173;28;19928;-70
2023/03/11 21:28:01;;;;;;;;;;;3.10;99.90;;;;;;8362305;28;19928;-69
2023/03/11 21:32:03;;;;;;;;;;;3.00;99.90;;;;;;8364058;28;19932;-70
2023/03/11 21:36:06;;;;;;;;;;;3.00;99.90;;;;;;8362230;28;20035;-70
2023/03/11 21:40:08;;;;;;;;;;;3.00;99.90;;;;;;8361584;28;19932;-70
2023/03/11 21:44:10;;;;;;;;;;;3.00;99.90;;;;;;8367095;28;20553;-70
2023/03/11 21:48:12;;;;;;;;;;;2.90;99.90;;;;;;8364858;28;19932;-69
2023/03/11 21:52:14;;;;;;;;;;;2.90;99.90;;;;;;8360281;28;20373;-69
2023/03/11 21:56:16;;;;;;;;;;;2.90;99.90;;;;;;8366506;28;19929;-69
2023/03/11 22:00:18;;;;;;;;;;;2.90;99.90;;;;;;8349773;28;19924;-70
2023/03/11 22:04:19;;;;;;;;;;;2.90;99.90;;;;;;8372009;28;19928;-70
2023/03/11 22:08:21;;;;;;;;;;;3.00;99.90;;;;;;8387945;28;19967;-69
2023/03/11 22:12:23;;;;;;;;;;;2.90;99.90;;;;;;8377785;28;20387;-69
2023/03/11 22:16:25;;;;;;;;;;;3.00;99.90;;;;;;8388538;28;20377;-69
2023/03/11 22:20:27;;;;;;;;;;;2.90;99.90;;;;;;8394794;28;19960;-69
2023/03/11 22:24:30;;;;;;;;;;;2.90;99.90;;;;;;8386133;28;20216;-70
2023/03/11 22:28:32;;;;;;;;;;;2.80;99.90;;;;;;8384140;28;19924;-70
2023/03/11 22:32:34;;;;;;;;;;;2.80;99.90;;;;;;8386769;28;19928;-69
2023/03/11 22:36:36;;;;;;;;;;;2.80;99.90;;;;;;8388970;28;19935;-70
2023/03/11 22:40:38;;;;;;;;;;;2.70;99.90;;;;;;8384211;28;19924;-70
2023/03/11 22:44:39;;;;;;;;;;;2.70;99.90;;;;;;8386603;28;19936;-70
2023/03/11 22:48:41;;;;;;;;;;;2.60;99.90;;;;;;8384859;28;19924;-70
2023/03/11 22:52:43;;;;;;;;;;;2.60;99.90;;;;;;8388451;28;19934;-70
2023/03/11 22:56:44;;;;;;;;;;;2.50;99.90;;;;;;8383864;28;19966;-70
2023/03/11 23:00:46;;;;;;;;;;;2.50;99.90;;;;;;8385564;28;19929;-70
2023/03/11 23:04:48;;;;;;;;;;;2.50;99.90;;;;;;8369044;28;19939;-70
2023/03/11 23:08:50;;;;;;;;;;;2.50;99.90;;;;;;8368991;28;19924;-69
2023/03/11 23:12:51;;;;;;;;;;;2.50;99.90;;;;;;8384547;28;20019;-70
2023/03/11 23:16:53;;;;;;;;;;;2.50;99.90;;;;;;8384832;28;19971;-70
2023/03/11 23:20:55;;;;;;;;;;;2.60;99.90;;;;;;8379915;28;20376;-70
2023/03/11 23:24:59;;;;;;;;;;;2.70;99.90;;;;;;8378592;28;19924;-70
2023/03/11 23:29:02;;;;;;;;;;;2.70;99.90;;;;;;8368239;28;19924;-70
2023/03/11 23:33:04;;;;;;;;;;;2.70;99.90;;;;;;8391103;28;19929;-70
2023/03/11 23:37:05;;;;;;;;;;;2.90;99.90;;;;;;8383307;28;20269;-70
2023/03/11 23:41:08;;;;;;;;;;;3.00;99.90;;;;;;8369856;28;19971;-70
2023/03/11 23:45:09;;;;;;;;;;;3.00;99.90;;;;;;8380461;28;19924;-70
2023/03/11 23:49:11;;;;;;;;;;;3.10;99.90;;;;;;8386924;28;19994;-70
2023/03/11 23:53:13;;;;;;;;;;;3.10;99.90;;;;;;8368532;28;20015;-70
2023/03/11 23:57:15;;;;;;;;;;;3.20;99.90;;;;;;8381337;28;19931;-70
